Time;durP1;ratioP1;P1;durP2;ratioP2;P2;SDS_P1;SDS_P2;PMS_P1;PMS_P2;Temp;Humidity;BMP_temperature;BMP_pressure;BME280_temperature;BME280_humidity;BME280_pressure;Samples;Min_cycle;Max_cycle;Signal;HPM_P1;HPM_P2
2022/09/08 00:02:18;;;;;;;;;;;;;;;16.79;100.00;100957.09;4977735;28;19934;-74
2022/09/08 00:04:44;;;;;;;;;;;;;;;16.78;100.00;100955.41;4980434;28;20045;-74
2022/09/08 00:07:09;;;;;;;;;;;;;;;16.77;100.00;100956.38;4980869;28;19933;-72
2022/09/08 00:09:34;;;;;;;;;;;;;;;16.77;100.00;100959.03;4979540;28;21305;-74
2022/09/08 00:12:01;;;;;;;;;;;;;;;16.75;100.00;100959.13;4992615;28;19979;-74
2022/09/08 00:14:27;;;;;;;;;;;;;;;16.73;100.00;100953.06;5011717;28;19975;-74
2022/09/08 00:16:52;;;;;;;;;;;;;;;16.71;100.00;100954.94;4992703;28;20344;-74
2022/09/08 00:19:18;;;;;;;;;;;;;;;16.70;100.00;100956.78;4977532;28;19929;-74
2022/09/08 00:21:43;;;;;;;;;;;;;;;16.72;100.00;100955.81;4980849;28;19957;-74
2022/09/08 00:24:08;;;;;;;;;;;;;;;16.73;100.00;100961.06;4979556;28;20392;-74
2022/09/08 00:26:34;;;;;;;;;;;;;;;16.75;100.00;100955.59;4980008;28;19933;-74
2022/09/08 00:28:59;;;;;;;;;;;;;;;16.76;100.00;100947.47;4978511;28;19930;-74
2022/09/08 00:31:25;;;;;;;;;;;;;;;16.77;100.00;100935.81;4992936;28;20392;-74
2022/09/08 00:33:50;;;;;;;;;;;;;;;16.78;100.00;100939.34;4980518;28;19956;-74
2022/09/08 00:36:16;;;;;;;;;;;;;;;16.78;100.00;100934.00;5008535;28;20406;-74
2022/09/08 00:38:50;;;;;;;;;;;;;;;16.77;100.00;100929.63;4970754;28;19929;-74
2022/09/08 00:41:16;;;;;;;;;;;;;;;16.77;100.00;100927.78;4979927;28;20071;-74
2022/09/08 00:43:42;;;;;;;;;;;;;;;16.75;100.00;100924.38;5010885;28;20474;-74
2022/09/08 00:46:19;;;;;;;;;;;;;;;16.73;100.00;100914.75;5011460;28;19930;-74
2022/09/08 00:48:46;;;;;;;;;;;;;;;16.72;100.00;100910.38;5010397;28;19929;-74
2022/09/08 00:51:12;;;;;;;;;;;;;;;16.73;100.00;100920.09;4995216;28;19948;-75
2022/09/08 00:53:38;;;;;;;;;;;;;;;16.71;100.00;100914.84;4980498;28;20488;-74
2022/09/08 00:56:05;;;;;;;;;;;;;;;16.70;100.00;100908.69;4980271;28;20019;-74
2022/09/08 00:58:31;;;;;;;;;;;;;;;16.70;100.00;100908.69;4993964;28;20309;-74
2022/09/08 01:00:56;;;;;;;;;;;;;;;16.69;100.00;100903.44;5011021;28;19932;-74
2022/09/08 01:03:22;;;;;;;;;;;;;;;16.65;100.00;100897.44;5010679;28;19930;-74
2022/09/08 01:05:51;;;;;;;;;;;;;;;16.64;100.00;100892.19;4992802;28;19936;-74
2022/09/08 01:14:41;;;;;;;;;;;;;;;16.61;100.00;100871.88;5010147;28;19969;-74
2022/09/08 01:17:16;;;;;;;;;;;;;;;16.59;100.00;100855.13;5006388;28;20383;-74
2022/09/08 01:19:41;;;;;;;;;;;;;;;16.58;100.00;100852.53;4990111;28;20518;-74
2022/09/08 01:22:26;;;;;;;;;;;;;;;16.57;100.00;100849.03;5010306;28;19960;-74
2022/09/08 01:25:10;;;;;;;;;;;;;;;16.55;100.00;100841.13;4991466;28;19926;-74
2022/09/08 01:27:36;;;;;;;;;;;;;;;16.54;100.00;100846.56;4978596;28;19932;-74
2022/09/08 01:30:02;;;;;;;;;;;;;;;16.54;100.00;100852.78;5009766;28;19933;-74
2022/09/08 01:32:29;;;;;;;;;;;;;;;16.55;100.00;100848.28;5010268;28;20301;-74
2022/09/08 01:34:54;;;;;;;;;;;;;;;16.55;100.00;100838.44;4979049;28;19929;-74
2022/09/08 01:37:19;;;;;;;;;;;;;;;16.56;100.00;100840.16;4990912;28;19925;-73
2022/09/08 01:39:45;;;;;;;;;;;;;;;16.58;100.00;100836.50;5008813;28;20076;-75
2022/09/08 01:42:10;;;;;;;;;;;;;;;16.60;100.00;100832.75;4973185;28;19930;-72
2022/09/08 01:44:36;;;;;;;;;;;;;;;16.61;100.00;100842.50;4971431;28;19930;-74
2022/09/08 01:47:01;;;;;;;;;;;;;;;16.63;100.00;100835.25;4990771;28;20356;-74
2022/09/08 01:49:27;;;;;;;;;;;;;;;16.65;100.00;100830.63;4977353;28;19945;-74
2022/09/08 01:51:52;;;;;;;;;;;;;;;16.67;100.00;100831.38;4969625;28;20481;-74
2022/09/08 01:54:18;;;;;;;;;;;;;;;16.70;100.00;100836.50;4976565;28;20385;-73
2022/09/08 01:56:43;;;;;;;;;;;;;;;16.72;100.00;100839.03;4978928;28;19929;-73
2022/09/08 01:59:09;;;;;;;;;;;;;;;16.73;100.00;100831.91;4977187;28;19930;-73
2022/09/08 02:01:34;;;;;;;;;;;;;;;16.71;100.00;100829.31;4977294;28;19926;-73
2022/09/08 02:04:00;;;;;;;;;;;;;;;16.71;100.00;100832.00;4977913;28;19951;-73
2022/09/08 02:06:25;;;;;;;;;;;;;;;16.70;100.00;100828.50;5008953;28;19988;-73
2022/09/08 02:08:51;;;;;;;;;;;;;;;16.70;100.00;100825.81;4977133;28;19972;-73
2022/09/08 02:11:17;;;;;;;;;;;;;;;16.70;100.00;100823.16;5008361;28;20170;-73
2022/09/08 02:13:42;;;;;;;;;;;;;;;16.70;100.00;100811.59;4990265;28;20389;-74
2022/09/08 02:16:09;;;;;;;;;;;;;;;16.72;100.00;100808.81;4988281;28;20434;-74
2022/09/08 02:18:35;;;;;;;;;;;;;;;16.71;100.00;100805.25;4990402;28;19935;-74
2022/09/08 02:21:18;;;;;;;;;;;;;;;16.72;100.00;100812.31;5008771;28;19930;-75
2022/09/08 02:23:45;;;;;;;;;;;;;;;16.73;100.00;100818.53;4978364;28;19934;-75
2022/09/08 02:26:29;;;;;;;;;;;;;;;16.76;100.00;100818.28;4967972;28;19926;-75
2022/09/08 02:28:54;;;;;;;;;;;;;;;16.75;100.00;100819.25;4978050;28;20292;-74
2022/09/08 02:31:24;;;;;;;;;;;;;;;16.74;100.00;100814.88;5007123;28;19926;-75
2022/09/08 02:33:50;;;;;;;;;;;;;;;16.75;100.00;100819.25;4977271;28;20522;-74
2022/09/08 02:36:15;;;;;;;;;;;;;;;16.75;100.00;100820.13;5007157;28;19946;-75
2022/09/08 02:38:40;;;;;;;;;;;;;;;16.75;100.00;100814.78;4977911;28;19938;-75
2022/09/08 02:41:06;;;;;;;;;;;;;;;16.74;100.00;100814.88;4979227;28;19988;-74
2022/09/08 02:43:32;;;;;;;;;;;;;;;16.75;100.00;100817.47;4979413;28;19933;-75
2022/09/08 02:46:02;;;;;;;;;;;;;;;16.75;100.00;100822.81;4992159;28;19937;-74
2022/09/08 02:48:27;;;;;;;;;;;;;;;16.76;100.00;100818.28;4978961;28;19934;-75
2022/09/08 02:50:53;;;;;;;;;;;;;;;16.77;100.00;100822.69;5010099;28;19936;-74
2022/09/08 02:53:18;;;;;;;;;;;;;;;16.77;100.00;100820.03;4979381;28;19933;-74
2022/09/08 02:55:43;;;;;;;;;;;;;;;16.77;100.00;100820.88;4981457;28;22204;-74
2022/09/08 02:58:09;;;;;;;;;;;;;;;16.77;100.00;100820.03;4997342;28;19941;-74
2022/09/08 03:00:36;;;;;;;;;;;;;;;16.77;100.00;100814.69;4994311;28;19980;-74
2022/09/08 03:03:02;;;;;;;;;;;;;;;16.78;100.00;100813.72;5013287;28;19968;-73
2022/09/08 03:05:28;;;;;;;;;;;;;;;16.77;100.00;100809.34;5013494;28;20024;-73
2022/09/08 03:07:54;;;;;;;;;;;;;;;16.78;100.00;100814.53;4982563;28;19925;-73
2022/09/08 03:10:23;;;;;;;;;;;;;;;16.79;100.00;100807.41;4981037;28;20012;-74
2022/09/08 03:12:50;;;;;;;;;;;;;;;16.79;100.00;100802.06;5010106;28;20592;-74
2022/09/08 03:15:15;;;;;;;;;;;;;;;16.80;100.00;100809.09;4982066;28;19925;-73
2022/09/08 03:17:41;;;;;;;;;;;;;;;16.80;100.00;100801.94;4979136;28;19936;-74
2022/09/08 03:20:06;;;;;;;;;;;;;;;16.81;100.00;100800.09;4980583;28;19968;-74
2022/09/08 03:22:32;;;;;;;;;;;;;;;16.81;100.00;100794.75;4981877;28;19929;-74
2022/09/08 03:24:57;;;;;;;;;;;;;;;16.80;100.00;100785.03;4980919;28;19930;-73
2022/09/08 03:27:23;;;;;;;;;;;;;;;16.79;100.00;100794.88;5012741;28;19936;-73
2022/09/08 03:29:48;;;;;;;;;;;;;;;16.78;100.00;100793.16;4981790;28;19977;-74
2022/09/08 03:32:13;;;;;;;;;;;;;;;16.78;100.00;100795.84;4994087;28;19934;-74
2022/09/08 03:34:39;;;;;;;;;;;;;;;16.78;100.00;100800.34;4978673;28;19934;-74
2022/09/08 03:37:04;;;;;;;;;;;;;;;16.77;100.00;100799.47;5011933;28;19987;-74
2022/09/08 03:39:30;;;;;;;;;;;;;;;16.77;100.00;100802.16;4979061;28;19981;-74
2022/09/08 03:41:55;;;;;;;;;;;;;;;16.76;100.00;100803.13;5010461;28;19925;-74
2022/09/08 03:44:21;;;;;;;;;;;;;;;16.77;100.00;100798.66;4981393;28;19933;-75
2022/09/08 03:46:46;;;;;;;;;;;;;;;16.76;100.00;100803.13;5010250;28;19953;-73
2022/09/08 03:49:12;;;;;;;;;;;;;;;16.76;100.00;100810.28;4981034;28;20012;-74
2022/09/08 03:51:37;;;;;;;;;;;;;;;16.76;100.00;100826.31;5011032;28;19969;-74
2022/09/08 03:56:48;;;;;;;;;;;;;;;16.72;100.00;100812.31;4979475;28;19937;-74
2022/09/08 03:59:14;;;;;;;;;;;;;;;16.72;100.00;100812.31;4979847;28;20020;-74
2022/09/08 04:01:39;;;;;;;;;;;;;;;16.70;100.00;100809.78;5010580;28;20388;-73
2022/09/08 04:04:05;;;;;;;;;;;;;;;16.70;100.00;100799.09;4993127;28;19973;-74
2022/09/08 04:06:30;;;;;;;;;;;;;;;16.69;100.00;100808.03;4975975;28;19996;-73
2022/09/08 04:08:56;;;;;;;;;;;;;;;16.68;100.00;100822.38;4979810;28;19945;-73
2022/09/08 04:11:21;;;;;;;;;;;;;;;16.69;100.00;100826.75;4979751;28;20324;-72
2022/09/08 04:13:47;;;;;;;;;;;;;;;16.67;100.00;100826.03;4980205;28;19930;-74
2022/09/08 04:16:12;;;;;;;;;;;;;;;16.66;100.00;100831.47;4977387;28;19932;-74
2022/09/08 04:18:38;;;;;;;;;;;;;;;16.66;100.00;100829.66;4979388;28;20323;-74
2022/09/08 04:21:04;;;;;;;;;;;;;;;16.66;100.00;100810.09;4978107;28;19934;-74
2022/09/08 04:23:30;;;;;;;;;;;;;;;16.67;100.00;100804.63;5008987;28;20393;-74
2022/09/08 04:25:59;;;;;;;;;;;;;;;16.65;100.00;100800.34;4991012;28;19925;-74
2022/09/08 04:28:24;;;;;;;;;;;;;;;16.53;100.00;100778.91;5011249;28;19929;-74
2022/09/08 04:30:50;;;;;;;;;;;;;;;16.40;100.00;100757.56;4993560;28;20375;-74
2022/09/08 04:33:16;;;;;;;;;;;;;;;16.32;100.00;100757.25;4994114;28;20492;-74
2022/09/08 04:35:41;;;;;;;;;;;;;;;16.25;100.00;100753.31;4991181;28;19930;-74
2022/09/08 04:38:06;;;;;;;;;;;;;;;16.18;100.00;100757.38;4977764;28;19969;-74
2022/09/08 04:40:33;;;;;;;;;;;;;;;16.13;100.00;100752.38;4977274;28;20411;-74
2022/09/08 04:42:58;;;;;;;;;;;;;;;16.07;100.00;100734.94;4979849;28;19933;-74
2022/09/08 04:45:23;;;;;;;;;;;;;;;16.04;100.00;100721.84;4977726;28;19926;-74
2022/09/08 04:47:49;;;;;;;;;;;;;;;16.00;100.00;100725.66;4976674;28;19929;-74
2022/09/08 04:50:14;;;;;;;;;;;;;;;15.96;100.00;100725.03;4977935;28;20669;-74
2022/09/08 04:52:40;;;;;;;;;;;;;;;15.94;100.00;100720.75;4978201;28;19937;-75
2022/09/08 04:55:05;;;;;;;;;;;;;;;15.92;100.00;100722.69;4977329;28;19934;-75
2022/09/08 04:57:31;;;;;;;;;;;;;;;15.89;100.00;100737.06;4977870;28;19988;-74
2022/09/08 04:59:56;;;;;;;;;;;;;;;15.85;100.00;100724.91;4976453;28;19925;-75
2022/09/08 05:02:22;;;;;;;;;;;;;;;15.84;100.00;100733.84;4992931;28;19926;-74
2022/09/08 05:04:47;;;;;;;;;;;;;;;15.81;100.00;100737.63;4978262;28;20024;-76
2022/09/08 05:07:12;;;;;;;;;;;;;;;15.81;100.00;100758.09;4979605;28;19926;-75
2022/09/08 05:09:38;;;;;;;;;;;;;;;15.82;100.00;100766.00;4978556;28;20413;-75
2022/09/08 05:12:03;;;;;;;;;;;;;;;15.82;100.00;100750.00;4980268;28;19992;-75
2022/09/08 05:14:29;;;;;;;;;;;;;;;15.81;100.00;100734.09;4994494;28;19929;-74
2022/09/08 05:16:54;;;;;;;;;;;;;;;15.79;100.00;100728.84;4978860;28;19929;-75
2022/09/08 05:19:19;;;;;;;;;;;;;;;15.78;100.00;100695.13;4968840;28;19936;-75
2022/09/08 05:21:45;;;;;;;;;;;;;;;15.77;100.00;100685.41;4990675;28;19929;-75
2022/09/08 05:24:10;;;;;;;;;;;;;;;15.73;100.00;100692.78;4978639;28;19926;-75
2022/09/08 05:26:36;;;;;;;;;;;;;;;15.71;100.00;100712.53;4994648;28;19930;-76
2022/09/08 05:29:03;;;;;;;;;;;;;;;15.71;100.00;100709.84;4994518;28;19929;-75
2022/09/08 05:31:29;;;;;;;;;;;;;;;15.71;100.00;100709.84;5009461;28;20113;-75
2022/09/08 05:33:56;;;;;;;;;;;;;;;15.71;100.00;100699.16;4979930;28;20448;-76
2022/09/08 05:36:23;;;;;;;;;;;;;;;15.71;100.00;100699.16;4978070;28;19926;-76
2022/09/08 05:38:48;;;;;;;;;;;;;;;15.69;100.00;100709.13;4979651;28;19929;-76
2022/09/08 05:41:14;;;;;;;;;;;;;;;15.68;100.00;100704.75;4991782;28;20391;-76
2022/09/08 05:43:45;;;;;;;;;;;;;;;15.62;100.00;100700.66;4978239;28;19969;-75
2022/09/08 05:46:11;;;;;;;;;;;;;;;15.60;100.00;100711.44;4991257;28;19929;-75
2022/09/08 05:48:36;;;;;;;;;;;;;;;15.61;100.00;100726.50;4979820;28;19934;-75
2022/09/08 05:51:05;;;;;;;;;;;;;;;15.59;100.00;100722.22;4991989;28;19978;-75
2022/09/08 05:53:31;;;;;;;;;;;;;;;15.61;100.00;100737.19;5009797;28;20119;-75
2022/09/08 05:55:56;;;;;;;;;;;;;;;15.69;100.00;100727.78;4979869;28;20312;-75
2022/09/08 05:58:27;;;;;;;;;;;;;;;15.70;100.00;100695.63;4991684;28;19930;-75
2022/09/08 06:01:03;;;;;;;;;;;;;;;15.71;100.00;100677.81;5009069;28;19929;-75
2022/09/08 06:03:28;;;;;;;;;;;;;;;15.64;100.00;100682.75;4992192;28;20000;-75
2022/09/08 06:05:54;;;;;;;;;;;;;;;15.61;100.00;100672.28;4979433;28;20016;-75
2022/09/08 06:08:21;;;;;;;;;;;;;;;15.57;100.00;100650.28;5010066;28;19926;-75
2022/09/08 06:10:50;;;;;;;;;;;;;;;15.51;100.00;100650.72;4991814;28;19933;-75
2022/09/08 06:13:16;;;;;;;;;;;;;;;15.50;100.00;100675.69;4979140;28;20412;-76
2022/09/08 06:15:42;;;;;;;;;;;;;;;15.52;100.00;100684.44;4979012;28;19932;-76
2022/09/08 06:18:10;;;;;;;;;;;;;;;15.51;100.00;100682.72;4979331;28;19952;-76
2022/09/08 06:20:35;;;;;;;;;;;;;;;15.48;100.00;100698.97;5009695;28;20397;-77
2022/09/08 06:23:01;;;;;;;;;;;;;;;15.50;100.00;100681.03;4979529;28;19937;-77
2022/09/08 06:25:27;;;;;;;;;;;;;;;15.46;100.00;100668.84;5011354;28;19932;-77
2022/09/08 06:28:08;;;;;;;;;;;;;;;15.40;100.00;100653.25;4994177;28;19933;-77
2022/09/08 06:30:33;;;;;;;;;;;;;;;15.37;100.00;100635.69;4992865;28;19926;-77
2022/09/08 06:33:00;;;;;;;;;;;;;;;15.36;100.00;100662.44;4982904;28;20363;-77
2022/09/08 06:35:25;;;;;;;;;;;;;;;15.36;100.00;100676.63;5015245;28;20408;-77
2022/09/08 06:37:54;;;;;;;;;;;;;;;15.38;100.00;100684.53;4982595;28;19929;-76
2022/09/08 06:40:22;;;;;;;;;;;;;;;15.38;100.00;100746.75;4983179;28;19961;-77
2022/09/08 06:42:52;;;;;;;;;;;;;;;15.38;100.00;100736.06;5013995;28;19925;-77
2022/09/08 06:45:25;;;;;;;;;;;;;;;15.35;100.00;100746.94;5010226;28;20024;-77
2022/09/08 06:48:06;;;;;;;;;;;;;;;15.29;100.00;100763.34;4982869;28;20003;-77
2022/09/08 06:50:33;;;;;;;;;;;;;;;15.24;100.00;100763.66;4995117;28;20301;-76
2022/09/08 06:53:01;;;;;;;;;;;;;;;15.24;100.00;100760.16;5013059;28;20393;-75
2022/09/08 06:55:30;;;;;;;;;;;;;;;15.23;100.00;100764.63;4982926;28;19980;-76
2022/09/08 06:58:07;;;;;;;;;;;;;;;15.20;100.00;100759.50;4982027;28;20399;-76
2022/09/08 07:00:41;;;;;;;;;;;;;;;15.18;100.00;100756.94;4994627;28;20286;-76
2022/09/08 07:03:16;;;;;;;;;;;;;;;15.16;100.00;100750.81;5013523;28;19929;-76
2022/09/08 07:05:41;;;;;;;;;;;;;;;15.15;100.00;100748.28;4987385;28;20289;-76
2022/09/08 07:08:07;;;;;;;;;;;;;;;15.13;100.00;100747.50;4993666;28;19938;-77
2022/09/08 07:10:41;;;;;;;;;;;;;;;15.07;100.00;100744.31;4980061;28;19973;-76
2022/09/08 07:13:30;;;;;;;;;;;;;;;15.05;100.00;100740.88;4980391;28;19930;-76
2022/09/08 07:16:19;;;;;;;;;;;;;;;15.03;100.00;100737.47;4952898;28;19930;-76
2022/09/08 07:18:56;;;;;;;;;;;;;;;15.04;100.00;100743.66;4980615;28;20497;-75
2022/09/08 07:21:28;;;;;;;;;;;;;;;15.04;100.00;100744.50;5006546;28;19936;-75
2022/09/08 07:23:53;;;;;;;;;;;;;;;15.04;100.00;100744.50;4981704;28;19932;-75
2022/09/08 07:26:22;;;;;;;;;;;;;;;15.03;100.00;100741.97;5011373;28;19926;-74
2022/09/08 07:28:48;;;;;;;;;;;;;;;15.03;100.00;100745.47;4994686;28;20983;-76
2022/09/08 07:31:19;;;;;;;;;;;;;;;15.00;100.00;100748.34;4994308;28;19930;-75
2022/09/08 07:33:45;;;;;;;;;;;;;;;15.00;100.00;100737.69;4994057;28;19926;-75
2022/09/08 07:36:32;;;;;;;;;;;;;;;14.96;100.00;100735.28;5009630;28;20008;-75
2022/09/08 07:38:59;;;;;;;;;;;;;;;14.92;100.00;100739.97;4996440;28;19937;-75
2022/09/08 07:41:28;;;;;;;;;;;;;;;14.92;100.00;100761.28;4992726;28;19933;-75
2022/09/08 07:43:56;;;;;;;;;;;;;;;14.91;100.00;100771.13;4981502;28;19926;-75
2022/09/08 07:46:28;;;;;;;;;;;;;;;14.94;100.00;100765.56;5010975;28;19992;-75
2022/09/08 07:49:03;;;;;;;;;;;;;;;14.94;100.00;100741.59;4979464;28;20379;-75
2022/09/08 07:51:31;;;;;;;;;;;;;;;14.96;100.00;100736.16;5009772;28;20018;-74
2022/09/08 07:54:20;;;;;;;;;;;;;;;14.94;100.00;100744.25;4994929;28;19926;-75
2022/09/08 07:56:52;;;;;;;;;;;;;;;14.93;100.00;100747.03;4993007;28;19936;-75
2022/09/08 07:59:27;;;;;;;;;;;;;;;14.94;100.00;100738.09;5008595;28;19955;-76
2022/09/08 08:02:07;;;;;;;;;;;;;;;14.93;100.00;100741.72;4978571;28;20020;-75
2022/09/08 08:04:45;;;;;;;;;;;;;;;14.91;100.00;100738.25;4979770;28;19932;-75
2022/09/08 08:07:12;;;;;;;;;;;;;;;14.90;100.00;100749.88;4979916;28;19984;-75
2022/09/08 08:10:01;;;;;;;;;;;;;;;14.88;100.00;100757.13;5010371;28;19937;-74
2022/09/08 08:12:30;;;;;;;;;;;;;;;14.80;100.00;100758.50;4981458;28;20795;-75
2022/09/08 08:15:02;;;;;;;;;;;;;;;14.74;100.00;100764.22;4992798;28;19933;-75
2022/09/08 08:17:36;;;;;;;;;;;;;;;14.74;100.00;100761.56;5008351;28;19936;-74
2022/09/08 08:20:06;;;;;;;;;;;;;;;14.74;100.00;100766.00;4980301;28;19925;-75
2022/09/08 08:22:44;;;;;;;;;;;;;;;14.75;100.00;100760.59;5009317;28;19972;-74
2022/09/08 08:25:15;;;;;;;;;;;;;;;14.77;100.00;100769.34;4979277;28;20456;-75
2022/09/08 08:27:56;;;;;;;;;;;;;;;14.80;100.00;100777.16;4979681;28;19972;-75
2022/09/08 08:30:22;;;;;;;;;;;;;;;14.86;100.00;100785.72;4978722;28;19930;-75
2022/09/08 08:32:58;;;;;;;;;;;;;;;14.87;100.00;100790.91;4993741;28;19936;-75
2022/09/08 08:35:27;;;;;;;;;;;;;;;14.89;100.00;100782.81;4976405;28;19926;-75
2022/09/08 08:37:53;;;;;;;;;;;;;;;14.89;100.00;100793.50;5010762;28;19926;-75
2022/09/08 08:40:25;;;;;;;;;;;;;;;14.94;100.00;100797.56;4979343;28;19939;-75
2022/09/08 08:42:53;;;;;;;;;;;;;;;14.95;100.00;100798.44;4991144;28;19968;-75
2022/09/08 08:45:19;;;;;;;;;;;;;;;14.97;100.00;100801.00;4979197;28;19929;-75
2022/09/08 08:48:23;;;;;;;;;;;;;;;14.97;100.00;100796.50;4979823;28;19940;-75
2022/09/08 08:51:07;;;;;;;;;;;;;;;14.93;100.00;100801.19;4974294;28;20519;-75
2022/09/08 08:53:41;;;;;;;;;;;;;;;14.87;100.00;100806.06;4973119;28;19980;-75
2022/09/08 08:56:18;;;;;;;;;;;;;;;14.87;100.00;100798.91;4976630;28;19926;-75
2022/09/08 08:59:13;;;;;;;;;;;;;;;14.85;100.00;100805.28;4977488;28;20235;-75
2022/09/08 09:01:57;;;;;;;;;;;;;;;14.77;100.00;100809.31;4957715;28;19925;-77
2022/09/08 09:04:41;;;;;;;;;;;;;;;14.73;100.00;100810.44;4978280;28;19932;-75
2022/09/08 09:07:07;;;;;;;;;;;;;;;14.70;100.00;100812.44;4978865;28;19977;-75
2022/09/08 09:10:00;;;;;;;;;;;;;;;14.69;100.00;100798.25;4991665;28;19933;-75
2022/09/08 09:12:44;;;;;;;;;;;;;;;14.73;100.00;100799.78;4964660;28;21851;-76
2022/09/08 09:15:22;;;;;;;;;;;;;;;14.73;100.00;100799.78;5009842;28;20000;-75
2022/09/08 09:18:03;;;;;;;;;;;;;;;14.71;100.00;100801.66;4976661;28;19988;-75
2022/09/08 09:20:47;;;;;;;;;;;;;;;14.70;100.00;100788.47;4980159;28;19981;-75
2022/09/08 09:23:13;;;;;;;;;;;;;;;14.65;100.00;100789.59;4978293;28;19930;-75
2022/09/08 09:26:10;;;;;;;;;;;;;;;14.66;100.00;100777.16;4978120;28;20438;-75
2022/09/08 09:28:42;;;;;;;;;;;;;;;14.71;100.00;100782.19;4947369;28;19936;-74
2022/09/08 09:31:17;;;;;;;;;;;;;;;14.78;100.00;100781.69;5003315;28;19966;-75
2022/09/08 09:33:58;;;;;;;;;;;;;;;14.80;100.00;100782.47;5008059;28;19946;-75
2022/09/08 09:36:33;;;;;;;;;;;;;;;14.86;100.00;100781.22;5010053;28;20506;-75
2022/09/08 09:38:58;;;;;;;;;;;;;;;14.88;100.00;100773.13;5008987;28;19937;-75
2022/09/08 09:41:30;;;;;;;;;;;;;;;14.88;100.00;100773.97;4978222;28;19931;-76
2022/09/08 09:43:58;;;;;;;;;;;;;;;14.91;100.00;100768.44;4978206;28;20003;-76
2022/09/08 09:46:30;;;;;;;;;;;;;;;14.93;100.00;100773.69;4977780;28;19930;-75
2022/09/08 09:49:01;;;;;;;;;;;;;;;14.96;100.00;100776.16;4978307;28;20060;-76
2022/09/08 09:51:45;;;;;;;;;;;;;;;14.98;100.00;100779.56;4978749;28;19926;-75
2022/09/08 09:54:30;;;;;;;;;;;;;;;15.00;100.00;100774.13;4976719;28;19929;-75
2022/09/08 09:57:01;;;;;;;;;;;;;;;15.03;100.00;100768.63;5009127;28;19969;-75
2022/09/08 09:59:32;;;;;;;;;;;;;;;15.02;100.00;100762.41;5010438;28;19933;-75
2022/09/08 10:02:17;;;;;;;;;;;;;;;15.03;100.00;100769.44;4974595;28;19930;-75
2022/09/08 10:04:56;;;;;;;;;;;;;;;15.04;100.00;100765.00;4979437;28;20649;-75
2022/09/08 10:07:24;;;;;;;;;;;;;;;15.03;100.00;100771.28;5012120;28;19934;-75
2022/09/08 10:10:08;;;;;;;;;;;;;;;15.05;100.00;100764.03;4982355;28;19981;-76
2022/09/08 10:12:34;;;;;;;;;;;;;;;15.07;100.00;100759.44;4982209;28;20006;-75
2022/09/08 10:15:31;;;;;;;;;;;;;;;15.11;100.00;100757.44;4983208;28;20526;-76
2022/09/08 10:18:06;;;;;;;;;;;;;;;15.13;100.00;100758.16;4944717;28;19933;-76
2022/09/08 10:20:37;;;;;;;;;;;;;;;15.12;100.00;100761.81;4982249;28;20337;-75
2022/09/08 10:23:42;;;;;;;;;;;;;;;15.12;100.00;100761.81;4982674;28;19981;-75
2022/09/08 10:26:10;;;;;;;;;;;;;;;15.11;100.00;100765.44;4974946;28;20372;-76
2022/09/08 10:28:51;;;;;;;;;;;;;;;15.10;100.00;100763.72;4959962;28;19929;-75
2022/09/08 10:31:23;;;;;;;;;;;;;;;15.09;100.00;100759.34;4965176;28;19954;-75
2022/09/08 10:34:07;;;;;;;;;;;;;;;15.05;100.00;100761.38;4980668;28;19925;-75
2022/09/08 10:36:38;;;;;;;;;;;;;;;14.99;100.00;100762.59;5012928;28;19933;-75
2022/09/08 10:39:13;;;;;;;;;;;;;;;14.97;100.00;100756.53;4995041;28;20407;-75
2022/09/08 10:41:38;;;;;;;;;;;;;;;14.98;100.00;100762.72;4979688;28;19937;-75
2022/09/08 10:44:19;;;;;;;;;;;;;;;15.00;100.00;100759.00;4980635;28;19925;-75
2022/09/08 10:46:44;;;;;;;;;;;;;;;14.99;100.00;100751.94;5012623;28;20020;-74
2022/09/08 10:49:10;;;;;;;;;;;;;;;15.01;100.00;100752.72;4982658;28;19936;-75
2022/09/08 10:51:36;;;;;;;;;;;;;;;15.02;100.00;100751.75;4979816;28;19925;-75
2022/09/08 10:54:20;;;;;;;;;;;;;;;15.07;100.00;100743.44;4981767;28;20051;-75
2022/09/08 10:56:45;;;;;;;;;;;;;;;15.04;100.00;100738.34;4982543;28;19929;-75
2022/09/08 10:59:29;;;;;;;;;;;;;;;15.03;100.00;100733.97;4994985;28;19968;-75
2022/09/08 11:01:55;;;;;;;;;;;;;;;15.03;100.00;100742.78;4981966;28;19929;-75
2022/09/08 11:04:23;;;;;;;;;;;;;;;15.04;100.00;100733.84;5013716;28;19979;-75
2022/09/08 11:07:07;;;;;;;;;;;;;;;15.10;100.00;100734.41;4982699;28;19929;-75
2022/09/08 11:09:53;;;;;;;;;;;;;;;15.15;100.00;100746.44;4980922;28;19956;-75
2022/09/08 11:12:27;;;;;;;;;;;;;;;15.19;100.00;100742.63;4980799;28;19930;-75
2022/09/08 11:15:04;;;;;;;;;;;;;;;15.26;100.00;100737.72;5012783;28;20518;-75
2022/09/08 11:17:32;;;;;;;;;;;;;;;15.33;100.00;100741.72;4994571;28;20406;-75
2022/09/08 11:20:07;;;;;;;;;;;;;;;15.39;100.00;100736.91;5013167;28;19936;-75
2022/09/08 11:22:32;;;;;;;;;;;;;;;15.48;100.00;100744.31;5012974;28;19930;-75
2022/09/08 11:25:13;;;;;;;;;;;;;;;15.59;100.00;100744.41;4982013;28;19932;-75
2022/09/08 11:27:48;;;;;;;;;;;;;;;15.72;100.00;100746.25;5013084;28;20059;-76
2022/09/08 11:30:21;;;;;;;;;;;;;;;15.76;100.00;100739.75;4981149;28;19933;-75
2022/09/08 11:32:47;;;;;;;;;;;;;;;15.80;100.00;100741.22;5010826;28;19929;-79
2022/09/08 11:35:19;;;;;;;;;;;;;;;15.86;100.00;100734.63;5013067;28;19936;-79
2022/09/08 11:37:49;;;;;;;;;;;;;;;15.90;100.00;100744.09;4995246;28;19933;-78
2022/09/08 11:40:14;;;;;;;;;;;;;;;15.92;100.00;100741.38;5011840;28;19932;-79
2022/09/08 11:42:46;;;;;;;;;;;;;;;15.91;100.00;100751.16;5011923;28;21571;-75
2022/09/08 11:45:14;;;;;;;;;;;;;;;15.93;100.00;100756.44;5011823;28;19929;-75
2022/09/08 11:47:40;;;;;;;;;;;;;;;15.94;100.00;100752.78;4981091;28;19933;-75
2022/09/08 11:50:05;;;;;;;;;;;;;;;15.95;100.00;100747.34;4981852;28;19937;-75
2022/09/08 11:52:30;;;;;;;;;;;;;;;16.01;100.00;100759.41;4981119;28;19930;-75
2022/09/08 11:55:02;;;;;;;;;;;;;;;16.04;100.00;100753.00;4981053;28;19999;-76
2022/09/08 11:57:31;;;;;;;;;;;;;;;16.05;100.00;100749.38;5007497;28;20463;-74
2022/09/08 12:00:12;;;;;;;;;;;;;;;16.07;100.00;100748.31;5008446;28;20079;-74
2022/09/08 12:02:47;;;;;;;;;;;;;;;16.11;100.00;100741.78;4981122;28;19936;-74
2022/09/08 12:05:32;;;;;;;;;;;;;;;16.15;100.00;100745.09;4981040;28;19933;-74
2022/09/08 12:08:07;;;;;;;;;;;;;;;16.15;100.00;100755.78;4980469;28;19932;-75
2022/09/08 12:10:44;;;;;;;;;;;;;;;16.17;100.00;100751.19;5011286;28;20300;-74
2022/09/08 12:13:18;;;;;;;;;;;;;;;16.25;100.00;100746.13;4980308;28;21355;-74
2022/09/08 12:15:46;;;;;;;;;;;;;;;16.35;100.00;100749.00;5010913;28;19969;-75
2022/09/08 12:18:22;;;;;;;;;;;;;;;16.42;100.00;100752.97;5011781;28;20385;-75
2022/09/08 12:21:06;;;;;;;;;;;;;;;16.48;100.00;100753.47;4993734;28;19939;-75
2022/09/08 12:23:34;;;;;;;;;;;;;;;16.53;100.00;100748.66;4975850;28;19929;-75
2022/09/08 12:26:19;;;;;;;;;;;;;;;16.51;100.00;100740.75;4975381;28;19929;-75
2022/09/08 12:28:47;;;;;;;;;;;;;;;16.56;100.00;100743.94;4980015;28;19934;-75
2022/09/08 12:31:31;;;;;;;;;;;;;;;16.66;100.00;100753.97;4979530;28;19930;-75
2022/09/08 12:33:57;;;;;;;;;;;;;;;16.70;100.00;100750.97;4980626;28;20165;-75
2022/09/08 12:36:41;;;;;;;;;;;;;;;16.73;100.00;100741.00;4980332;28;20389;-75
2022/09/08 12:39:10;;;;;;;;;;;;;;;16.76;100.00;100743.44;5010349;28;20375;-76
2022/09/08 12:41:47;;;;;;;;;;;;;;;16.79;100.00;100744.06;4979806;28;19926;-74
2022/09/08 12:44:26;;;;;;;;;;;;;;;16.86;100.00;100752.50;4980603;28;19925;-75
2022/09/08 12:47:07;;;;;;;;;;;;;;;16.93;100.00;100750.22;4979039;28;20411;-75
2022/09/08 12:49:42;;;;;;;;;;;;;;;16.96;100.00;100748.19;4980182;28;19934;-75
2022/09/08 12:52:10;;;;;;;;;;;;;;;17.00;100.00;100740.78;4984473;28;19952;-74
2022/09/08 12:54:49;;;;;;;;;;;;;;;17.03;100.00;100745.09;4992649;28;20528;-74